This is the latest recevied weather packets stored in our database for station/object WV6L-13. If no packets are shown the sender has not sent any weather packets the latest 1 day(s).
| Time | Temp. | Humidity | Pressure | Rain* | Wind** | Luminosity | Snow |
|---|---|---|---|---|---|---|---|
| 1778086193 | 20° C | 35% | 928.7 hPa | - | - | - | - |
| 1778085593 | 18.33° C | 38% | 928.9 hPa | - | - | - | - |
| 1778085293 | 17.78° C | 38% | 928.8 hPa | - | - | - | - |
| 1778084993 | 18.33° C | 38% | 928.8 hPa | - | - | - | - |
| 1778084693 | 18.33° C | 37% | 928.7 hPa | - | - | - | - |
| 1778084393 | 18.33° C | 38% | 928.7 hPa | - | - | - | - |
| 1778084093 | 18.89° C | 37% | 928.8 hPa | - | - | - | - |
| 1778082594 | 17.22° C | 39% | 928.9 hPa | - | - | - | - |
| 1778081093 | 16.11° C | 42% | 928.8 hPa | - | - | - | - |
| 1778080494 | 16.11° C | 42% | 928.7 hPa | - | - | - | - |
| 1778079593 | 15.56° C | 44% | 928.7 hPa | - | - | - | - |
| 1778078393 | 14.44° C | 45% | 928.6 hPa | - | - | - | - |
| 1778077193 | 13.33° C | 45% | 928.5 hPa | - | - | - | - |
| 1778076893 | 13.33° C | 45% | 928.3 hPa | - | - | - | - |
| 1778074193 | 9.44° C | 53% | 928 hPa | - | - | - | - |
| 1778072093 | 7.78° C | 56% | 927.5 hPa | - | - | - | - |
| 1778070293 | 8.33° C | 56% | 927.1 hPa | - | - | - | - |
| 1778069093 | 8.33° C | 53% | 926.9 hPa | - | - | - | - |
| 1778068193 | 8.89° C | 53% | 927 hPa | - | - | - | - |
| 1778067893 | 8.89° C | 51% | 926.9 hPa | - | - | - | - |
| 1778067292 | 9.44° C | 50% | 926.8 hPa | - | - | - | - |
| 1778066393 | 9.44° C | 49% | 926.6 hPa | - | - | - | - |
| 1778066092 | 9.44° C | 49% | 926.6 hPa | - | - | - | - |
| 1778065193 | 10° C | 48% | 926.6 hPa | - | - | - | - |
| 1778064893 | 10° C | 47% | 926.4 hPa | - | - | - | - |
* Rain since midnight (hover to see other rain measurements)
** Current wind speed in m/s (hover to see current wind gust speed)